createdAt,value
2019-04-26T00:00:07.525Z,1004.05
2019-04-26T00:01:07.703Z,1004.06
2019-04-26T00:02:07.404Z,1004.00
2019-04-26T00:03:07.768Z,1004.02
2019-04-26T00:04:07.722Z,1004.05
2019-04-26T00:05:07.820Z,1004.02
2019-04-26T00:06:08.891Z,1004.02
2019-04-26T00:07:06.955Z,1004.04
2019-04-26T00:08:06.977Z,1004.06
2019-04-26T00:09:06.938Z,1004.05
2019-04-26T00:10:06.953Z,1004.08
2019-04-26T00:11:06.912Z,1004.06
2019-04-26T00:12:06.910Z,1004.06
2019-04-26T00:13:06.898Z,1003.98
2019-04-26T00:14:06.875Z,1004.01
2019-04-26T00:15:06.872Z,1003.98
2019-04-26T00:16:06.890Z,1003.97
2019-04-26T00:17:06.874Z,1003.94
2019-04-26T00:18:06.839Z,1003.92
2019-04-26T00:19:06.828Z,1003.96
2019-04-26T00:20:06.839Z,1003.91
2019-04-26T00:21:06.805Z,1003.91
2019-04-26T00:22:06.813Z,1003.91
2019-04-26T00:23:06.789Z,1003.95
2019-04-26T00:24:06.770Z,1003.95
2019-04-26T00:25:06.763Z,1003.98
2019-04-26T00:26:06.791Z,1004.03
2019-04-26T00:27:06.738Z,1004.08
2019-04-26T00:28:06.828Z,1004.20
2019-04-26T00:29:06.725Z,1004.30
2019-04-26T00:30:06.720Z,1004.47
2019-04-26T00:31:06.697Z,1004.56
2019-04-26T00:32:06.712Z,1004.70
2019-04-26T00:33:06.675Z,1004.74
2019-04-26T00:34:06.711Z,1004.86
2019-04-26T00:35:06.663Z,1004.79
2019-04-26T00:36:06.652Z,1004.78
2019-04-26T00:37:06.641Z,1004.78
2019-04-26T00:38:06.643Z,1004.81
2019-04-26T00:39:06.618Z,1004.72
2019-04-26T00:40:06.631Z,1004.64
2019-04-26T00:41:06.591Z,1004.53
2019-04-26T00:42:06.587Z,1004.45
2019-04-26T00:43:06.578Z,1004.38
2019-04-26T00:44:06.564Z,1004.38
2019-04-26T00:45:06.559Z,1004.41
2019-04-26T00:46:06.575Z,1004.51
2019-04-26T00:47:06.530Z,1004.63
2019-04-26T00:48:06.520Z,1004.74
2019-04-26T00:49:06.511Z,1004.84
2019-04-26T00:50:06.533Z,1004.82
2019-04-26T00:51:06.488Z,1004.87
2019-04-26T00:52:06.506Z,1004.90
2019-04-26T00:53:06.462Z,1005.01
2019-04-26T00:54:06.465Z,1004.98
2019-04-26T00:55:06.445Z,1004.89
2019-04-26T00:56:06.440Z,1004.92
2019-04-26T00:57:06.424Z,1004.92
2019-04-26T00:58:06.446Z,1004.88
2019-04-26T00:59:06.400Z,1004.78
2019-04-26T01:00:06.396Z,1004.78
2019-04-26T01:01:06.390Z,1004.71
2019-04-26T01:02:06.371Z,1004.66
2019-04-26T01:03:06.361Z,1004.64
2019-04-26T01:04:06.396Z,1004.53
2019-04-26T01:05:06.345Z,1004.39
2019-04-26T01:06:06.332Z,1004.38
2019-04-26T01:07:06.315Z,1004.37
2019-04-26T01:08:06.317Z,1004.40
2019-04-26T01:09:06.300Z,1004.50
2019-04-26T01:10:06.309Z,1004.56
2019-04-26T01:11:06.288Z,1004.66
2019-04-26T01:12:06.291Z,1004.66
2019-04-26T01:13:06.282Z,1004.69
2019-04-26T01:14:06.245Z,1004.69
2019-04-26T01:15:06.229Z,1004.66
2019-04-26T01:16:06.264Z,1004.62
2019-04-26T01:17:06.209Z,1004.56
2019-04-26T01:18:06.202Z,1004.47
2019-04-26T01:19:06.201Z,1004.44
2019-04-26T01:20:06.182Z,1004.39
2019-04-26T01:21:06.171Z,1004.35
2019-04-26T01:22:06.184Z,1004.34
2019-04-26T01:23:06.145Z,1004.34
2019-04-26T01:24:06.137Z,1004.37
2019-04-26T01:25:06.134Z,1004.44
2019-04-26T01:26:06.121Z,1004.51
2019-04-26T01:27:06.103Z,1004.56
2019-04-26T01:28:06.117Z,1004.58
2019-04-26T01:29:06.083Z,1004.58
2019-04-26T01:30:06.094Z,1004.50
2019-04-26T01:31:06.063Z,1004.46
2019-04-26T01:32:06.057Z,1004.46
2019-04-26T01:33:06.096Z,1004.37
2019-04-26T01:34:06.061Z,1004.33
2019-04-26T01:35:06.022Z,1004.24
2019-04-26T01:36:12.824Z,1004.21
2019-04-26T01:37:07.003Z,1004.16
2019-04-26T01:38:06.036Z,1004.15
2019-04-26T01:39:05.982Z,1004.06
2019-04-26T01:40:05.989Z,1004.13
2019-04-26T01:41:05.961Z,1004.07
2019-04-26T01:42:05.960Z,1004.12
2019-04-26T01:43:05.939Z,1004.11
2019-04-26T01:44:05.923Z,1004.07
2019-04-26T01:45:05.921Z,1004.07
2019-04-26T01:46:05.938Z,1004.04
2019-04-26T01:47:05.900Z,1004.03
2019-04-26T01:48:05.892Z,1004.10
2019-04-26T01:49:05.878Z,1004.09
2019-04-26T01:50:05.867Z,1004.11
2019-04-26T01:51:05.860Z,1004.10
2019-04-26T01:52:05.894Z,1004.09
2019-04-26T01:53:05.832Z,1004.08
2019-04-26T01:54:05.820Z,1004.06
2019-04-26T01:55:05.829Z,1004.06
2019-04-26T01:56:05.829Z,1004.00
2019-04-26T01:57:05.785Z,1003.93
2019-04-26T01:58:05.795Z,1003.90
2019-04-26T01:59:05.768Z,1003.91
2019-04-26T02:00:05.768Z,1003.87
2019-04-26T02:01:05.759Z,1003.83
2019-04-26T02:02:05.761Z,1003.82
2019-04-26T02:03:05.749Z,1003.88
2019-04-26T02:04:05.711Z,1003.83
2019-04-26T02:05:05.702Z,1003.87
2019-04-26T02:06:05.695Z,1003.85
2019-04-26T02:07:05.691Z,1003.84
2019-04-26T02:08:05.666Z,1003.83
2019-04-26T02:09:05.687Z,1003.80
2019-04-26T02:10:05.659Z,1003.80
2019-04-26T02:11:05.640Z,1003.82
2019-04-26T02:12:05.645Z,1003.82
2019-04-26T02:13:05.629Z,1003.86
2019-04-26T02:14:05.620Z,1003.86
2019-04-26T02:15:05.644Z,1003.89
2019-04-26T02:16:05.581Z,1003.95
2019-04-26T02:17:05.571Z,1003.91
2019-04-26T02:18:05.579Z,1003.90
2019-04-26T02:19:05.553Z,1003.81
2019-04-26T02:20:05.539Z,1003.74
2019-04-26T02:21:05.561Z,1003.75
2019-04-26T02:22:05.537Z,1003.68
2019-04-26T02:23:05.507Z,1003.66
2019-04-26T02:24:05.540Z,1003.74
2019-04-26T02:25:05.531Z,1003.83
2019-04-26T02:26:05.495Z,1003.87
2019-04-26T02:27:05.515Z,1003.89
2019-04-26T02:28:05.456Z,1003.84
2019-04-26T02:29:05.451Z,1003.79
2019-04-26T02:30:05.436Z,1003.75
2019-04-26T02:31:05.457Z,1003.73
2019-04-26T02:32:05.427Z,1003.68
2019-04-26T02:33:05.441Z,1003.71
2019-04-26T02:34:05.403Z,1003.74
2019-04-26T02:35:05.389Z,1003.80
2019-04-26T02:36:05.390Z,1003.81
2019-04-26T02:37:05.361Z,1003.80
2019-04-26T02:38:05.352Z,1003.80
2019-04-26T02:39:05.372Z,1003.78
2019-04-26T02:40:05.332Z,1003.80
2019-04-26T02:41:05.318Z,1003.83
2019-04-26T02:42:05.308Z,1003.86
2019-04-26T02:43:05.299Z,1003.89
2019-04-26T02:44:05.308Z,1003.84
2019-04-26T02:45:05.332Z,1003.83
2019-04-26T02:46:05.264Z,1003.89
2019-04-26T02:47:05.267Z,1003.91
2019-04-26T02:48:05.271Z,1003.89
2019-04-26T02:49:05.236Z,1003.87
2019-04-26T02:50:05.248Z,1003.83
2019-04-26T02:51:05.229Z,1003.77
2019-04-26T02:52:05.202Z,1003.77
2019-04-26T02:53:05.207Z,1003.75
2019-04-26T02:54:05.191Z,1003.72
2019-04-26T02:55:05.180Z,1003.74
2019-04-26T02:56:05.188Z,1003.76
2019-04-26T02:57:05.152Z,1003.73
2019-04-26T02:58:05.136Z,1003.72
2019-04-26T02:59:05.130Z,1003.68
2019-04-26T03:00:05.111Z,1003.72
2019-04-26T03:01:05.121Z,1003.74
2019-04-26T03:02:05.118Z,1003.72
2019-04-26T03:03:05.079Z,1003.72
2019-04-26T03:04:05.077Z,1003.72
2019-04-26T03:05:05.069Z,1003.70
2019-04-26T03:06:05.047Z,1003.70
2019-04-26T03:07:05.052Z,1003.71
2019-04-26T03:08:05.065Z,1003.72
2019-04-26T03:09:05.015Z,1003.74
2019-04-26T03:10:05.009Z,1003.74
2019-04-26T03:11:05.033Z,1003.78
2019-04-26T03:12:04.986Z,1003.81
2019-04-26T03:13:04.975Z,1003.82
2019-04-26T03:14:04.985Z,1003.80
2019-04-26T03:15:14.015Z,1003.81
2019-04-26T03:16:05.945Z,1003.77
2019-04-26T03:17:04.953Z,1003.76
2019-04-26T03:18:04.951Z,1003.82
2019-04-26T03:19:04.928Z,1003.86
2019-04-26T03:20:04.909Z,1003.79
2019-04-26T03:21:04.899Z,1003.81
2019-04-26T03:22:04.890Z,1003.74
2019-04-26T03:23:04.886Z,1003.68
2019-04-26T03:24:04.897Z,1003.64
2019-04-26T03:25:04.885Z,1003.62
2019-04-26T03:26:04.841Z,1003.61
2019-04-26T03:27:04.837Z,1003.57
2019-04-26T03:28:04.820Z,1003.53
2019-04-26T03:29:04.820Z,1003.54
2019-04-26T03:30:18.471Z,1003.49
2019-04-26T03:31:05.777Z,1003.46
2019-04-26T03:32:04.773Z,1003.43
2019-04-26T03:33:04.856Z,1003.41
2019-04-26T03:34:04.969Z,1003.40
2019-04-26T03:35:04.825Z,1003.38
2019-04-26T03:36:04.739Z,1003.38
2019-04-26T03:37:19.679Z,1003.46
2019-04-26T03:38:05.711Z,1003.34
2019-04-26T03:39:04.711Z,1003.36
2019-04-26T03:40:04.701Z,1003.39
2019-04-26T03:41:04.755Z,1003.41
2019-04-26T03:42:04.672Z,1003.46
2019-04-26T03:43:04.652Z,1003.45
2019-04-26T03:44:04.646Z,1003.45
2019-04-26T03:45:04.655Z,1003.50
2019-04-26T03:46:04.620Z,1003.53
2019-04-26T03:47:04.637Z,1003.56
2019-04-26T03:48:04.600Z,1003.54
2019-04-26T03:49:04.622Z,1003.52
2019-04-26T03:50:04.581Z,1003.51
2019-04-26T03:51:04.590Z,1003.49
2019-04-26T03:52:04.559Z,1003.52
2019-04-26T03:53:04.589Z,1003.46
2019-04-26T03:54:04.540Z,1003.48
2019-04-26T03:55:04.524Z,1003.52
2019-04-26T03:56:04.622Z,1003.53
2019-04-26T03:57:04.505Z,1003.56
2019-04-26T03:58:04.486Z,1003.65
2019-04-26T03:59:04.501Z,1003.64
2019-04-26T04:00:04.473Z,1003.68
2019-04-26T04:01:04.462Z,1003.70
2019-04-26T04:02:04.444Z,1003.73
2019-04-26T04:03:04.439Z,1003.75
2019-04-26T04:04:04.436Z,1003.76
2019-04-26T04:05:04.443Z,1003.78
2019-04-26T04:06:04.416Z,1003.75
2019-04-26T04:07:05.215Z,1003.79
2019-04-26T04:08:04.382Z,1003.80
2019-04-26T04:09:04.367Z,1003.75
2019-04-26T04:10:04.375Z,1003.80
2019-04-26T04:11:04.387Z,1003.77
2019-04-26T04:12:11.590Z,1003.76
2019-04-26T04:13:05.325Z,1003.79
2019-04-26T04:14:04.467Z,1003.81
2019-04-26T04:15:04.308Z,1003.83
2019-04-26T04:16:04.422Z,1003.82
2019-04-26T04:17:04.310Z,1003.88
2019-04-26T04:18:04.277Z,1003.84
2019-04-26T04:19:04.283Z,1003.83
2019-04-26T04:20:04.251Z,1003.81
2019-04-26T04:21:04.235Z,1003.82
2019-04-26T04:22:04.230Z,1003.81
2019-04-26T04:23:04.233Z,1003.78
2019-04-26T04:24:04.223Z,1003.79
2019-04-26T04:25:04.196Z,1003.81
2019-04-26T04:26:04.194Z,1003.84
2019-04-26T04:27:04.194Z,1003.83
2019-04-26T04:28:04.215Z,1003.87
2019-04-26T04:29:04.157Z,1003.93
2019-04-26T04:30:04.163Z,1003.91
2019-04-26T04:31:04.134Z,1003.87
2019-04-26T04:32:04.132Z,1003.79
2019-04-26T04:33:04.119Z,1003.77
2019-04-26T04:34:04.132Z,1003.79
2019-04-26T04:35:06.476Z,1003.79
2019-04-26T04:36:04.145Z,1003.81
2019-04-26T04:37:04.071Z,1003.83
2019-04-26T04:38:09.281Z,1003.81
2019-04-26T04:39:12.213Z,1003.86
2019-04-26T04:40:05.049Z,1003.86
2019-04-26T04:41:04.035Z,1003.85
2019-04-26T04:42:04.030Z,1003.87
2019-04-26T04:43:04.228Z,1003.90
2019-04-26T04:44:04.029Z,1003.92
2019-04-26T04:45:04.018Z,1003.85
2019-04-26T04:46:04.167Z,1003.86
2019-04-26T04:47:22.275Z,1003.88
2019-04-26T04:48:04.952Z,1003.93
2019-04-26T04:49:03.936Z,1003.97
2019-04-26T04:50:03.946Z,1004.00
2019-04-26T04:51:04.080Z,1004.02
2019-04-26T04:52:03.902Z,1004.06
2019-04-26T04:53:03.922Z,1004.09
2019-04-26T04:54:03.893Z,1004.12
2019-04-26T04:55:07.744Z,1004.05
2019-04-26T04:56:03.955Z,1004.01
2019-04-26T04:57:03.871Z,1003.96
2019-04-26T04:58:03.948Z,1004.00
2019-04-26T04:59:03.833Z,1004.08
2019-04-26T05:00:03.811Z,1004.05
2019-04-26T05:01:03.838Z,1004.06
2019-04-26T05:02:03.847Z,1004.08
2019-04-26T05:03:03.798Z,1004.09
2019-04-26T05:04:03.776Z,1004.15
2019-04-26T05:05:03.783Z,1004.10
2019-04-26T05:06:07.787Z,1004.08
2019-04-26T05:07:03.745Z,1004.09
2019-04-26T05:08:06.816Z,1004.04
2019-04-26T05:09:03.727Z,1003.99
2019-04-26T05:10:03.721Z,1004.01
2019-04-26T05:11:03.732Z,1004.03
2019-04-26T05:12:03.689Z,1004.00
2019-04-26T05:13:03.710Z,1004.01
2019-04-26T05:14:03.703Z,1004.08
2019-04-26T05:15:03.685Z,1004.04
2019-04-26T05:16:03.668Z,1004.07
2019-04-26T05:17:03.648Z,1004.10
2019-04-26T05:18:03.625Z,1004.09
2019-04-26T05:19:03.618Z,1004.12
2019-04-26T05:20:03.631Z,1004.11
2019-04-26T05:21:03.598Z,1004.07
2019-04-26T05:22:03.598Z,1003.95
2019-04-26T05:23:03.577Z,1003.95
2019-04-26T05:24:03.552Z,1003.95
2019-04-26T05:25:03.557Z,1003.98
2019-04-26T05:26:03.576Z,1004.05
2019-04-26T05:27:03.553Z,1004.04
2019-04-26T05:28:03.607Z,1004.02
2019-04-26T05:29:03.566Z,1004.06
2019-04-26T05:30:03.498Z,1004.12
2019-04-26T05:31:03.482Z,1004.09
2019-04-26T05:32:03.492Z,1004.05
2019-04-26T05:33:03.468Z,1004.03
2019-04-26T05:34:03.479Z,1003.99
2019-04-26T05:35:03.444Z,1003.95
2019-04-26T05:36:03.425Z,1003.91
2019-04-26T05:37:03.476Z,1003.93
2019-04-26T05:38:03.409Z,1003.95
2019-04-26T05:39:03.407Z,1003.98
2019-04-26T05:40:03.383Z,1003.94
2019-04-26T05:41:03.386Z,1003.97
2019-04-26T05:42:03.376Z,1004.04
2019-04-26T05:43:03.381Z,1004.07
2019-04-26T05:44:03.351Z,1004.11
2019-04-26T05:45:03.358Z,1004.12
2019-04-26T05:46:03.322Z,1004.19
2019-04-26T05:47:03.333Z,1004.16
2019-04-26T05:48:11.205Z,1004.16
2019-04-26T05:49:04.309Z,1004.18
2019-04-26T05:50:03.305Z,1004.23
2019-04-26T05:51:03.298Z,1004.19
2019-04-26T05:52:03.288Z,1004.23
2019-04-26T05:53:03.261Z,1004.19
2019-04-26T05:54:03.313Z,1004.17
2019-04-26T05:55:03.269Z,1004.20
2019-04-26T05:56:03.361Z,1004.15
2019-04-26T05:57:03.229Z,1004.11
2019-04-26T05:58:03.209Z,1004.15
2019-04-26T05:59:03.239Z,1004.19
2019-04-26T06:00:03.171Z,1004.20
2019-04-26T06:01:03.212Z,1004.28
2019-04-26T06:02:03.171Z,1004.33
2019-04-26T06:03:03.177Z,1004.39
2019-04-26T06:04:03.147Z,1004.41
2019-04-26T06:05:03.137Z,1004.40
2019-04-26T06:06:05.300Z,1004.44
2019-04-26T06:07:03.159Z,1004.51
2019-04-26T06:08:03.085Z,1004.51
2019-04-26T06:09:03.089Z,1004.50
2019-04-26T06:10:03.160Z,1004.49
2019-04-26T06:11:03.062Z,1004.46
2019-04-26T06:12:03.078Z,1004.44
2019-04-26T06:13:03.059Z,1004.32
2019-04-26T06:14:03.027Z,1004.27
2019-04-26T06:15:03.029Z,1004.26
2019-04-26T06:16:03.005Z,1004.10
2019-04-26T06:17:03.020Z,1004.15
2019-04-26T06:18:03.014Z,1004.10
2019-04-26T06:19:02.987Z,1004.09
2019-04-26T06:20:02.963Z,1004.10
2019-04-26T06:21:03.014Z,1004.07
2019-04-26T06:22:02.969Z,1004.11
2019-04-26T06:23:02.927Z,1004.12
2019-04-26T06:24:02.960Z,1004.10
2019-04-26T06:25:03.112Z,1004.11
2019-04-26T06:26:03.437Z,1004.13
2019-04-26T06:27:13.581Z,1004.12
2019-04-26T06:28:03.948Z,1004.21
2019-04-26T06:29:03.316Z,1004.19
2019-04-26T06:30:03.362Z,1004.21
2019-04-26T06:31:03.485Z,1004.20
2019-04-26T06:32:02.836Z,1004.27
2019-04-26T06:33:05.549Z,1004.29
2019-04-26T06:34:03.049Z,1004.34
2019-04-26T06:35:03.540Z,1004.39
2019-04-26T06:36:02.863Z,1004.40
2019-04-26T06:37:02.783Z,1004.41
2019-04-26T06:38:03.926Z,1004.37
2019-04-26T06:39:04.116Z,1004.35
2019-04-26T06:40:02.754Z,1004.38
2019-04-26T06:41:02.751Z,1004.32
2019-04-26T06:42:02.950Z,1004.37
2019-04-26T06:43:02.827Z,1004.34
2019-04-26T06:44:02.803Z,1004.33
2019-04-26T06:45:02.921Z,1004.35
2019-04-26T06:46:02.768Z,1004.39
2019-04-26T06:47:03.884Z,1004.43
2019-04-26T06:48:02.692Z,1004.51
2019-04-26T06:49:03.411Z,1004.54
2019-04-26T06:50:03.489Z,1004.58
2019-04-26T06:51:02.784Z,1004.65
2019-04-26T06:52:02.642Z,1004.64
2019-04-26T06:53:03.574Z,1004.74
2019-04-26T06:54:03.496Z,1004.71
2019-04-26T06:55:02.588Z,1004.71
2019-04-26T06:56:02.982Z,1004.88
2019-04-26T06:57:11.585Z,1004.71
2019-04-26T06:58:03.571Z,1004.86
2019-04-26T06:59:03.493Z,1004.78
2019-04-26T07:00:02.561Z,1004.78
2019-04-26T07:01:03.264Z,1004.75
2019-04-26T07:02:02.950Z,1004.73
2019-04-26T07:03:03.567Z,1004.69
2019-04-26T07:04:02.490Z,1004.86
2019-04-26T07:05:02.933Z,1004.78
2019-04-26T07:06:02.581Z,1004.82
2019-04-26T07:07:02.691Z,1004.83
2019-04-26T07:08:03.318Z,1004.83
2019-04-26T07:09:03.659Z,1004.88
2019-04-26T07:10:02.432Z,1005.08
2019-04-26T07:11:02.772Z,1004.99
2019-04-26T07:12:02.953Z,1005.02
2019-04-26T07:13:02.403Z,1005.00
2019-04-26T07:14:02.670Z,1005.11
2019-04-26T07:15:02.374Z,1004.89
2019-04-26T07:16:10.729Z,1004.88
2019-04-26T07:17:04.520Z,1005.02
2019-04-26T07:18:02.369Z,1004.86
2019-04-26T07:19:03.449Z,1004.88
2019-04-26T07:20:03.250Z,1004.83
2019-04-26T07:21:02.308Z,1004.81
2019-04-26T07:22:02.300Z,1005.00
2019-04-26T07:23:02.361Z,1004.81
2019-04-26T07:24:02.882Z,1004.85
2019-04-26T07:25:03.486Z,1004.85
2019-04-26T07:26:02.290Z,1004.82
2019-04-26T07:27:03.094Z,1005.03
2019-04-26T07:28:06.100Z,1004.96
2019-04-26T07:29:03.307Z,1004.95
2019-04-26T07:30:03.541Z,1004.86
2019-04-26T07:31:02.609Z,1005.13
2019-04-26T07:32:03.233Z,1005.02
2019-04-26T07:33:02.401Z,1005.01
2019-04-26T07:34:03.426Z,1004.97
2019-04-26T07:35:02.736Z,1005.00
2019-04-26T07:36:02.746Z,1005.07
2019-04-26T07:37:02.932Z,1005.04
2019-04-26T07:38:02.644Z,1005.15
2019-04-26T07:39:13.687Z,1005.17
2019-04-26T07:40:03.133Z,1005.20
2019-04-26T07:41:03.030Z,1005.23
2019-04-26T07:42:03.103Z,1005.09
2019-04-26T07:43:03.180Z,1005.10
2019-04-26T07:44:02.655Z,1005.12
2019-04-26T07:45:02.650Z,1005.18
2019-04-26T07:46:02.902Z,1005.18
2019-04-26T07:47:03.114Z,1005.19
2019-04-26T07:48:03.140Z,1005.33
2019-04-26T07:49:02.864Z,1005.10
2019-04-26T07:50:03.528Z,1005.20
2019-04-26T07:51:02.993Z,1005.18
2019-04-26T07:52:02.914Z,1005.09
2019-04-26T07:53:03.216Z,1005.14
2019-04-26T07:54:02.292Z,1005.09
2019-04-26T07:55:03.245Z,1005.18
2019-04-26T07:56:02.332Z,1005.21
2019-04-26T07:57:03.104Z,1005.25
2019-04-26T07:58:03.570Z,1005.32
2019-04-26T07:59:04.212Z,1005.26
2019-04-26T08:00:02.808Z,1005.27
2019-04-26T08:01:02.741Z,1005.30
2019-04-26T08:02:01.877Z,1005.29
2019-04-26T08:03:01.898Z,1005.33
2019-04-26T08:04:03.808Z,1005.24
2019-04-26T08:05:04.257Z,1005.20
2019-04-26T08:06:02.982Z,1005.15
2019-04-26T08:07:01.813Z,1005.44
2019-04-26T08:08:01.810Z,1005.27
2019-04-26T08:09:01.868Z,1005.40
2019-04-26T08:10:01.814Z,1005.17
2019-04-26T08:11:01.788Z,1005.25
2019-04-26T08:12:01.761Z,1005.40
2019-04-26T08:13:01.795Z,1005.36
2019-04-26T08:14:01.792Z,1005.31
2019-04-26T08:15:01.752Z,1005.40
2019-04-26T08:16:01.731Z,1005.50
2019-04-26T08:17:01.709Z,1005.47
2019-04-26T08:18:01.721Z,1005.43
2019-04-26T08:19:01.688Z,1005.31
2019-04-26T08:20:01.730Z,1005.44
2019-04-26T08:21:02.535Z,1005.44
2019-04-26T08:22:14.969Z,1005.34
2019-04-26T08:23:06.849Z,1005.24
2019-04-26T08:24:02.642Z,1005.29
2019-04-26T08:25:01.622Z,1005.32
2019-04-26T08:26:01.653Z,1005.41
2019-04-26T08:27:08.925Z,1005.24
2019-04-26T08:28:02.594Z,1005.36
2019-04-26T08:29:01.654Z,1005.49
2019-04-26T08:30:03.418Z,1005.49
2019-04-26T08:31:04.761Z,1005.28
2019-04-26T08:32:01.564Z,1005.37
2019-04-26T08:33:02.085Z,1005.28
2019-04-26T08:34:01.535Z,1005.37
2019-04-26T08:35:02.403Z,1005.33
2019-04-26T08:36:01.520Z,1005.31
2019-04-26T08:37:03.098Z,1005.23
2019-04-26T08:38:01.496Z,1005.19
2019-04-26T08:39:01.474Z,1005.32
2019-04-26T08:40:01.494Z,1005.35
2019-04-26T08:41:04.807Z,1005.34
2019-04-26T08:42:01.714Z,1005.24
2019-04-26T08:43:01.455Z,1005.30
2019-04-26T08:44:03.699Z,1005.36
2019-04-26T08:45:04.570Z,1005.42
2019-04-26T08:46:03.486Z,1005.47
2019-04-26T08:47:01.389Z,1005.16
2019-04-26T08:48:01.379Z,1005.51
2019-04-26T08:49:02.167Z,1005.41
2019-04-26T08:50:01.383Z,1005.34
2019-04-26T08:51:01.348Z,1005.23
2019-04-26T08:52:01.335Z,1005.33
2019-04-26T08:53:01.320Z,1005.26
2019-04-26T08:54:01.305Z,1005.29
2019-04-26T08:55:01.327Z,1005.34
2019-04-26T08:56:01.285Z,1005.35
2019-04-26T08:57:01.304Z,1005.49
2019-04-26T08:58:01.290Z,1005.60
2019-04-26T08:59:01.263Z,1005.42
2019-04-26T09:00:01.257Z,1005.57
2019-04-26T09:01:01.300Z,1005.64
2019-04-26T09:02:01.234Z,1005.64
2019-04-26T09:03:10.912Z,1005.61
2019-04-26T09:04:02.204Z,1005.67
2019-04-26T09:05:01.200Z,1005.70
2019-04-26T09:06:01.201Z,1005.77
2019-04-26T09:07:01.233Z,1005.68
2019-04-26T09:08:03.863Z,1005.73
2019-04-26T09:09:01.183Z,1005.65
2019-04-26T09:10:01.476Z,1005.67
2019-04-26T09:11:02.133Z,1005.79
2019-04-26T09:12:03.865Z,1005.77
2019-04-26T09:13:02.136Z,1005.81
2019-04-26T09:14:01.136Z,1005.76
2019-04-26T09:15:01.097Z,1005.80
2019-04-26T09:16:01.110Z,1005.78
2019-04-26T09:17:01.114Z,1005.99
2019-04-26T09:18:02.183Z,1005.74
2019-04-26T09:19:01.068Z,1006.00
2019-04-26T09:20:06.966Z,1005.99
2019-04-26T09:21:02.019Z,1005.71
2019-04-26T09:22:12.435Z,1005.87
2019-04-26T09:23:04.878Z,1005.94
2019-04-26T09:24:00.984Z,1006.07
2019-04-26T09:25:01.128Z,1006.01
2019-04-26T09:26:00.974Z,1005.96
2019-04-26T09:27:00.971Z,1006.46
2019-04-26T09:28:00.961Z,1006.06
2019-04-26T09:29:00.943Z,1006.44
2019-04-26T09:30:04.878Z,1006.29
2019-04-26T09:31:01.907Z,1006.24
2019-04-26T09:32:00.908Z,1006.02
2019-04-26T09:33:02.058Z,1006.11
2019-04-26T09:34:00.879Z,1006.14
2019-04-26T09:35:00.867Z,1006.09
2019-04-26T09:36:00.878Z,1006.05
2019-04-26T09:37:00.875Z,1006.23
2019-04-26T09:38:00.856Z,1006.20
2019-04-26T09:39:03.849Z,1006.32
2019-04-26T09:40:10.069Z,1006.08
2019-04-26T09:41:01.831Z,1005.96
2019-04-26T09:42:01.212Z,1006.13
2019-04-26T09:43:02.607Z,1005.83
2019-04-26T09:44:00.799Z,1005.91
2019-04-26T09:45:00.766Z,1005.89
2019-04-26T09:46:00.751Z,1005.91
2019-04-26T09:47:00.748Z,1006.01
2019-04-26T09:48:00.738Z,1006.02
2019-04-26T09:49:03.104Z,1006.00
2019-04-26T09:50:01.704Z,1006.08
2019-04-26T09:51:00.715Z,1006.00
2019-04-26T09:52:00.696Z,1006.15
2019-04-26T09:53:00.671Z,1006.34
2019-04-26T09:54:00.672Z,1006.23
2019-04-26T09:55:00.663Z,1006.10
2019-04-26T09:56:00.651Z,1006.27
2019-04-26T09:57:00.652Z,1006.20
2019-04-26T09:58:00.622Z,1006.28
2019-04-26T09:59:01.453Z,1006.21
2019-04-26T10:00:00.599Z,1006.26
2019-04-26T10:01:00.604Z,1006.13
2019-04-26T10:02:00.579Z,1006.61
2019-04-26T10:03:00.599Z,1006.34
2019-04-26T10:04:00.566Z,1006.45
2019-04-26T10:05:00.533Z,1006.56
2019-04-26T10:06:00.529Z,1006.38
2019-04-26T10:07:03.170Z,1006.29
2019-04-26T10:08:00.542Z,1006.49
2019-04-26T10:09:00.498Z,1006.44
2019-04-26T10:10:00.954Z,1006.41
2019-04-26T10:11:00.472Z,1006.25
2019-04-26T10:12:00.467Z,1006.42
2019-04-26T10:13:00.445Z,1006.28
2019-04-26T10:14:00.465Z,1006.40
2019-04-26T10:15:00.437Z,1006.34
2019-04-26T10:16:02.518Z,1006.57
2019-04-26T10:17:00.493Z,1006.55
2019-04-26T10:18:00.398Z,1006.36
2019-04-26T10:19:00.382Z,1006.50
2019-04-26T10:20:00.398Z,1006.73
2019-04-26T10:21:00.377Z,1006.56
2019-04-26T10:22:00.357Z,1006.49
2019-04-26T10:23:00.367Z,1006.69
2019-04-26T10:24:00.333Z,1006.52
2019-04-26T10:25:02.347Z,1007.08
2019-04-26T10:26:01.324Z,1006.55
2019-04-26T10:27:03.415Z,1006.44
2019-04-26T10:28:00.290Z,1006.47
2019-04-26T10:29:00.296Z,1006.43
2019-04-26T10:30:07.690Z,1006.66
2019-04-26T10:31:01.290Z,1006.51
2019-04-26T10:32:00.264Z,1006.52
2019-04-26T10:33:02.202Z,1006.59
2019-04-26T10:34:00.227Z,1006.71
2019-04-26T10:35:00.232Z,1006.86
2019-04-26T10:36:00.207Z,1006.66
2019-04-26T10:37:01.486Z,1006.72
2019-04-26T10:38:01.177Z,1006.86
2019-04-26T10:39:00.186Z,1006.71
2019-04-26T10:40:00.161Z,1006.68
2019-04-26T10:41:00.151Z,1006.84
2019-04-26T10:42:00.181Z,1006.78
2019-04-26T10:43:00.146Z,1006.76
2019-04-26T10:44:00.127Z,1006.63
2019-04-26T10:45:00.149Z,1006.88
2019-04-26T10:46:00.102Z,1006.71
2019-04-26T10:47:04.329Z,1006.87
2019-04-26T10:48:01.112Z,1006.83
2019-04-26T10:49:08.586Z,1006.79
2019-04-26T10:50:01.053Z,1006.77
2019-04-26T10:51:03.214Z,1006.69
2019-04-26T10:52:01.033Z,1006.72
2019-04-26T10:53:00.029Z,1006.84
2019-04-26T10:54:01.712Z,1006.89
2019-04-26T10:55:01.021Z,1006.74
2019-04-26T10:56:00.009Z,1006.81
2019-04-26T10:56:59.976Z,1006.72
2019-04-26T10:57:59.963Z,1006.77
2019-04-26T10:58:59.970Z,1006.80
2019-04-26T10:59:59.973Z,1006.95
2019-04-26T11:00:59.971Z,1006.93
2019-04-26T11:01:59.921Z,1007.00
2019-04-26T11:03:04.009Z,1007.18
2019-04-26T11:03:59.899Z,1007.10
2019-04-26T11:04:59.903Z,1006.91
2019-04-26T11:05:59.896Z,1007.03
2019-04-26T11:07:02.044Z,1007.03
2019-04-26T11:07:59.875Z,1007.13
2019-04-26T11:08:59.889Z,1007.03
2019-04-26T11:10:02.823Z,1006.97
2019-04-26T11:10:59.975Z,1006.94
2019-04-26T11:11:59.840Z,1007.00
2019-04-26T11:12:59.814Z,1007.08
2019-04-26T11:13:59.825Z,1006.98
2019-04-26T11:14:59.783Z,1006.92
2019-04-26T11:16:02.626Z,1006.91
2019-04-26T11:17:00.882Z,1006.94
2019-04-26T11:17:59.749Z,1006.99
2019-04-26T11:19:01.231Z,1006.99
2019-04-26T11:19:59.730Z,1007.15
2019-04-26T11:20:59.725Z,1007.01
2019-04-26T11:21:59.709Z,1007.09
2019-04-26T11:22:59.726Z,1007.34
2019-04-26T11:23:59.712Z,1007.18
2019-04-26T11:24:59.686Z,1007.09
2019-04-26T11:26:01.639Z,1007.11
2019-04-26T11:26:59.657Z,1007.16
2019-04-26T11:27:59.657Z,1007.14
2019-04-26T11:28:59.668Z,1007.05
2019-04-26T11:30:11.080Z,1007.30
2019-04-26T11:31:00.631Z,1007.14
2019-04-26T11:32:02.760Z,1007.05
2019-04-26T11:32:59.608Z,1007.16
2019-04-26T11:34:05.415Z,1007.13
2019-04-26T11:35:00.732Z,1007.38
2019-04-26T11:35:59.571Z,1007.06
2019-04-26T11:36:59.559Z,1006.91
2019-04-26T11:37:59.569Z,1007.13
2019-04-26T11:39:01.335Z,1007.03
2019-04-26T11:40:00.514Z,1007.01
2019-04-26T11:41:06.164Z,1006.98
2019-04-26T11:42:00.524Z,1007.03
2019-04-26T11:42:59.490Z,1007.10
2019-04-26T11:43:59.470Z,1007.10
2019-04-26T11:45:05.927Z,1007.15
2019-04-26T11:46:04.728Z,1007.09
2019-04-26T11:47:02.874Z,1007.08
2019-04-26T11:48:03.132Z,1007.08
2019-04-26T11:48:59.606Z,1007.08
2019-04-26T11:49:59.567Z,1006.97
2019-04-26T11:50:59.395Z,1006.90
2019-04-26T11:52:02.835Z,1006.93
2019-04-26T11:52:59.383Z,1006.97
2019-04-26T11:53:59.364Z,1006.97
2019-04-26T11:54:59.353Z,1006.97
2019-04-26T11:56:00.223Z,1006.93
2019-04-26T11:56:59.328Z,1006.98
2019-04-26T11:57:59.363Z,1006.86
2019-04-26T11:58:59.321Z,1006.82
2019-04-26T12:00:01.434Z,1006.82
2019-04-26T12:01:00.303Z,1006.84
2019-04-26T12:01:59.281Z,1006.92
2019-04-26T12:02:59.270Z,1006.81
2019-04-26T12:04:00.723Z,1006.70
2019-04-26T12:04:59.660Z,1006.78